sensor_id;sensor_type;location;lat;lon;timestamp;temperature;humidity
47090;DHT22;32840;52.516;13.294;2022-12-24T00:00:40;7.70;99.90
47090;DHT22;32840;52.516;13.294;2022-12-24T00:03:28;7.70;99.90
47090;DHT22;32840;52.516;13.294;2022-12-24T00:06:19;7.60;99.90
47090;DHT22;32840;52.516;13.294;2022-12-24T00:09:06;7.60;99.90
47090;DHT22;32840;52.516;13.294;2022-12-24T00:11:52;7.60;99.90
47090;DHT22;32840;52.516;13.294;2022-12-24T00:14:36;7.50;99.90
47090;DHT22;32840;52.516;13.294;2022-12-24T00:17:21;7.50;99.90
47090;DHT22;32840;52.516;13.294;2022-12-24T00:20:07;7.50;99.90
47090;DHT22;32840;52.516;13.294;2022-12-24T00:22:52;7.50;99.90
47090;DHT22;32840;52.516;13.294;2022-12-24T00:25:37;7.40;99.90
47090;DHT22;32840;52.516;13.294;2022-12-24T00:28:24;7.50;99.90
47090;DHT22;32840;52.516;13.294;2022-12-24T00:31:18;7.50;99.90
47090;DHT22;32840;52.516;13.294;2022-12-24T00:34:03;7.50;99.90
47090;DHT22;32840;52.516;13.294;2022-12-24T00:36:48;7.50;99.90
47090;DHT22;32840;52.516;13.294;2022-12-24T00:39:33;7.40;99.90
47090;DHT22;32840;52.516;13.294;2022-12-24T00:42:18;7.40;99.90
47090;DHT22;32840;52.516;13.294;2022-12-24T00:45:03;7.50;99.90
47090;DHT22;32840;52.516;13.294;2022-12-24T00:47:49;7.50;99.90
47090;DHT22;32840;52.516;13.294;2022-12-24T00:50:35;7.50;99.90
47090;DHT22;32840;52.516;13.294;2022-12-24T00:53:21;7.40;99.90
47090;DHT22;32840;52.516;13.294;2022-12-24T00:56:07;7.50;99.90
47090;DHT22;32840;52.516;13.294;2022-12-24T00:58:52;7.50;99.90
47090;DHT22;32840;52.516;13.294;2022-12-24T01:01:37;7.50;99.90
47090;DHT22;32840;52.516;13.294;2022-12-24T01:04:22;7.50;99.90
47090;DHT22;32840;52.516;13.294;2022-12-24T01:07:25;7.50;99.90
47090;DHT22;32840;52.516;13.294;2022-12-24T01:10:12;7.50;99.90
47090;DHT22;32840;52.516;13.294;2022-12-24T01:13:00;7.50;99.90
47090;DHT22;32840;52.516;13.294;2022-12-24T01:15:47;7.50;99.90
47090;DHT22;32840;52.516;13.294;2022-12-24T01:18:32;7.40;99.90
47090;DHT22;32840;52.516;13.294;2022-12-24T01:21:17;7.40;99.90
47090;DHT22;32840;52.516;13.294;2022-12-24T01:24:02;7.40;99.90
47090;DHT22;32840;52.516;13.294;2022-12-24T01:26:47;7.40;99.90
47090;DHT22;32840;52.516;13.294;2022-12-24T01:29:32;7.40;99.90
47090;DHT22;32840;52.516;13.294;2022-12-24T01:32:16;7.40;99.90
47090;DHT22;32840;52.516;13.294;2022-12-24T01:35:01;7.40;99.90
47090;DHT22;32840;52.516;13.294;2022-12-24T01:37:46;7.40;99.90
47090;DHT22;32840;52.516;13.294;2022-12-24T01:40:31;7.40;99.90
47090;DHT22;32840;52.516;13.294;2022-12-24T01:43:36;7.40;99.90
47090;DHT22;32840;52.516;13.294;2022-12-24T01:46:30;7.40;99.90
47090;DHT22;32840;52.516;13.294;2022-12-24T01:49:16;7.40;99.90
47090;DHT22;32840;52.516;13.294;2022-12-24T01:52:10;7.40;99.90
47090;DHT22;32840;52.516;13.294;2022-12-24T01:55:04;7.50;99.90
47090;DHT22;32840;52.516;13.294;2022-12-24T01:57:55;7.50;99.90
47090;DHT22;32840;52.516;13.294;2022-12-24T02:00:45;7.50;99.90
47090;DHT22;32840;52.516;13.294;2022-12-24T02:03:30;7.50;99.90
47090;DHT22;32840;52.516;13.294;2022-12-24T02:06:18;7.50;99.90
47090;DHT22;32840;52.516;13.294;2022-12-24T02:09:04;7.50;99.90
47090;DHT22;32840;52.516;13.294;2022-12-24T02:11:50;7.50;99.90
47090;DHT22;32840;52.516;13.294;2022-12-24T02:14:36;7.60;99.90
47090;DHT22;32840;52.516;13.294;2022-12-24T02:26:57;7.70;99.90
47090;DHT22;32840;52.516;13.294;2022-12-24T02:35:58;7.70;99.90
47090;DHT22;32840;52.516;13.294;2022-12-24T02:38:55;7.80;99.90
47090;DHT22;32840;52.516;13.294;2022-12-24T02:41:48;7.80;99.90
47090;DHT22;32840;52.516;13.294;2022-12-24T02:44:54;7.70;99.90
47090;DHT22;32840;52.516;13.294;2022-12-24T02:47:41;7.70;99.90
47090;DHT22;32840;52.516;13.294;2022-12-24T02:50:30;7.70;99.90
47090;DHT22;32840;52.516;13.294;2022-12-24T02:53:14;7.60;99.90
47090;DHT22;32840;52.516;13.294;2022-12-24T02:56:25;7.50;99.90
47090;DHT22;32840;52.516;13.294;2022-12-24T03:02:43;7.60;99.90
47090;DHT22;32840;52.516;13.294;2022-12-24T03:05:47;7.50;99.90
47090;DHT22;32840;52.516;13.294;2022-12-24T03:08:49;7.50;99.90
47090;DHT22;32840;52.516;13.294;2022-12-24T03:11:41;7.50;99.90
47090;DHT22;32840;52.516;13.294;2022-12-24T03:14:27;7.40;99.90
47090;DHT22;32840;52.516;13.294;2022-12-24T03:17:13;7.40;99.90
47090;DHT22;32840;52.516;13.294;2022-12-24T03:19:59;7.50;99.90
47090;DHT22;32840;52.516;13.294;2022-12-24T03:22:45;7.50;99.90
47090;DHT22;32840;52.516;13.294;2022-12-24T03:25:31;7.60;99.90
47090;DHT22;32840;52.516;13.294;2022-12-24T03:28:18;7.60;99.90
47090;DHT22;32840;52.516;13.294;2022-12-24T03:31:09;7.70;99.90
47090;DHT22;32840;52.516;13.294;2022-12-24T03:33:55;7.70;99.90
47090;DHT22;32840;52.516;13.294;2022-12-24T03:36:43;7.70;99.90
47090;DHT22;32840;52.516;13.294;2022-12-24T03:39:28;7.70;99.90
47090;DHT22;32840;52.516;13.294;2022-12-24T03:42:13;7.60;99.90
47090;DHT22;32840;52.516;13.294;2022-12-24T03:44:58;7.60;99.90
47090;DHT22;32840;52.516;13.294;2022-12-24T03:47:42;7.60;99.90
47090;DHT22;32840;52.516;13.294;2022-12-24T03:50:27;7.70;99.90
47090;DHT22;32840;52.516;13.294;2022-12-24T03:53:13;7.60;99.90
47090;DHT22;32840;52.516;13.294;2022-12-24T03:55:58;7.60;99.90
47090;DHT22;32840;52.516;13.294;2022-12-24T03:58:43;7.60;99.90
47090;DHT22;32840;52.516;13.294;2022-12-24T04:01:29;7.60;99.90
47090;DHT22;32840;52.516;13.294;2022-12-24T04:04:14;7.60;99.90
47090;DHT22;32840;52.516;13.294;2022-12-24T04:06:59;7.60;99.90
47090;DHT22;32840;52.516;13.294;2022-12-24T04:09:45;7.60;99.90
47090;DHT22;32840;52.516;13.294;2022-12-24T04:12:30;7.60;99.90
47090;DHT22;32840;52.516;13.294;2022-12-24T04:15:14;7.60;99.90
47090;DHT22;32840;52.516;13.294;2022-12-24T04:18:03;7.60;99.90
47090;DHT22;32840;52.516;13.294;2022-12-24T04:20:48;7.60;99.90
47090;DHT22;32840;52.516;13.294;2022-12-24T04:23:35;7.60;99.90
47090;DHT22;32840;52.516;13.294;2022-12-24T04:26:20;7.70;99.90
47090;DHT22;32840;52.516;13.294;2022-12-24T04:29:05;7.60;99.90
47090;DHT22;32840;52.516;13.294;2022-12-24T04:31:49;7.80;99.90
47090;DHT22;32840;52.516;13.294;2022-12-24T04:34:35;7.70;99.90
47090;DHT22;32840;52.516;13.294;2022-12-24T04:37:20;7.60;99.90
47090;DHT22;32840;52.516;13.294;2022-12-24T04:40:05;7.60;99.90
47090;DHT22;32840;52.516;13.294;2022-12-24T04:42:50;7.50;99.90
47090;DHT22;32840;52.516;13.294;2022-12-24T04:45:35;7.60;99.90
47090;DHT22;32840;52.516;13.294;2022-12-24T04:48:20;7.60;99.90
47090;DHT22;32840;52.516;13.294;2022-12-24T04:51:06;7.60;99.90
47090;DHT22;32840;52.516;13.294;2022-12-24T04:53:51;7.60;99.90
47090;DHT22;32840;52.516;13.294;2022-12-24T04:56:36;7.70;99.90
47090;DHT22;32840;52.516;13.294;2022-12-24T04:59:21;7.70;99.90
47090;DHT22;32840;52.516;13.294;2022-12-24T05:02:07;7.80;99.90
47090;DHT22;32840;52.516;13.294;2022-12-24T05:04:55;7.80;99.90
47090;DHT22;32840;52.516;13.294;2022-12-24T05:07:43;7.90;99.90
47090;DHT22;32840;52.516;13.294;2022-12-24T05:10:28;8.00;99.90
47090;DHT22;32840;52.516;13.294;2022-12-24T05:13:14;8.10;99.90
47090;DHT22;32840;52.516;13.294;2022-12-24T05:15:58;7.90;99.90
47090;DHT22;32840;52.516;13.294;2022-12-24T05:18:43;7.80;99.90
47090;DHT22;32840;52.516;13.294;2022-12-24T05:21:28;7.80;99.90
47090;DHT22;32840;52.516;13.294;2022-12-24T05:24:13;7.80;99.90
47090;DHT22;32840;52.516;13.294;2022-12-24T05:27:16;7.90;99.90
47090;DHT22;32840;52.516;13.294;2022-12-24T05:30:02;7.90;99.90
47090;DHT22;32840;52.516;13.294;2022-12-24T05:32:47;7.90;99.90
47090;DHT22;32840;52.516;13.294;2022-12-24T05:35:32;7.90;99.90
47090;DHT22;32840;52.516;13.294;2022-12-24T05:38:21;7.80;99.90
47090;DHT22;32840;52.516;13.294;2022-12-24T05:41:06;7.80;99.90
47090;DHT22;32840;52.516;13.294;2022-12-24T05:43:53;7.80;99.90
47090;DHT22;32840;52.516;13.294;2022-12-24T05:46:38;7.80;99.90
47090;DHT22;32840;52.516;13.294;2022-12-24T05:49:23;7.80;99.90
47090;DHT22;32840;52.516;13.294;2022-12-24T05:52:09;7.90;99.90
47090;DHT22;32840;52.516;13.294;2022-12-24T05:54:54;7.80;99.90
47090;DHT22;32840;52.516;13.294;2022-12-24T05:57:39;7.60;99.90
47090;DHT22;32840;52.516;13.294;2022-12-24T06:00:25;7.60;99.90
47090;DHT22;32840;52.516;13.294;2022-12-24T06:03:10;7.60;99.90
47090;DHT22;32840;52.516;13.294;2022-12-24T06:06:00;7.70;99.90
47090;DHT22;32840;52.516;13.294;2022-12-24T06:08:47;7.80;99.90
47090;DHT22;32840;52.516;13.294;2022-12-24T06:11:32;7.80;99.90
47090;DHT22;32840;52.516;13.294;2022-12-24T06:14:17;7.70;99.90
47090;DHT22;32840;52.516;13.294;2022-12-24T06:17:02;7.70;99.90
47090;DHT22;32840;52.516;13.294;2022-12-24T06:19:47;7.70;99.90
47090;DHT22;32840;52.516;13.294;2022-12-24T06:22:32;7.60;99.90
47090;DHT22;32840;52.516;13.294;2022-12-24T06:25:17;7.60;99.90
47090;DHT22;32840;52.516;13.294;2022-12-24T06:28:02;7.70;99.90
47090;DHT22;32840;52.516;13.294;2022-12-24T06:30:49;7.70;99.90
47090;DHT22;32840;52.516;13.294;2022-12-24T06:33:33;7.80;99.90
47090;DHT22;32840;52.516;13.294;2022-12-24T06:36:22;7.90;99.90
47090;DHT22;32840;52.516;13.294;2022-12-24T06:39:07;7.90;99.90
47090;DHT22;32840;52.516;13.294;2022-12-24T06:41:52;7.90;99.90
47090;DHT22;32840;52.516;13.294;2022-12-24T06:44:37;7.90;99.90
47090;DHT22;32840;52.516;13.294;2022-12-24T06:47:21;7.80;99.90
47090;DHT22;32840;52.516;13.294;2022-12-24T06:50:07;7.70;99.90
47090;DHT22;32840;52.516;13.294;2022-12-24T06:52:52;7.70;99.90
47090;DHT22;32840;52.516;13.294;2022-12-24T06:55:38;7.80;99.90
47090;DHT22;32840;52.516;13.294;2022-12-24T06:58:24;7.80;99.90
47090;DHT22;32840;52.516;13.294;2022-12-24T07:01:12;7.70;99.90
47090;DHT22;32840;52.516;13.294;2022-12-24T07:03:59;7.70;99.90
47090;DHT22;32840;52.516;13.294;2022-12-24T07:06:43;7.70;99.90
47090;DHT22;32840;52.516;13.294;2022-12-24T07:09:30;7.80;99.90
47090;DHT22;32840;52.516;13.294;2022-12-24T07:12:16;7.90;99.90
47090;DHT22;32840;52.516;13.294;2022-12-24T07:15:01;8.00;99.90
47090;DHT22;32840;52.516;13.294;2022-12-24T07:17:48;7.90;99.90
47090;DHT22;32840;52.516;13.294;2022-12-24T07:20:33;7.90;99.90
47090;DHT22;32840;52.516;13.294;2022-12-24T07:23:17;7.90;99.90
47090;DHT22;32840;52.516;13.294;2022-12-24T07:26:06;8.00;99.90
47090;DHT22;32840;52.516;13.294;2022-12-24T07:28:50;7.90;99.90
47090;DHT22;32840;52.516;13.294;2022-12-24T07:31:35;7.90;99.90
47090;DHT22;32840;52.516;13.294;2022-12-24T07:34:22;7.90;99.90
47090;DHT22;32840;52.516;13.294;2022-12-24T07:37:07;7.90;99.90
47090;DHT22;32840;52.516;13.294;2022-12-24T07:39:52;7.90;99.90
47090;DHT22;32840;52.516;13.294;2022-12-24T07:42:37;7.90;99.90
47090;DHT22;32840;52.516;13.294;2022-12-24T07:45:23;7.90;99.90
47090;DHT22;32840;52.516;13.294;2022-12-24T07:48:07;8.00;99.90
47090;DHT22;32840;52.516;13.294;2022-12-24T07:50:52;7.90;99.90
47090;DHT22;32840;52.516;13.294;2022-12-24T07:53:37;7.90;99.90
47090;DHT22;32840;52.516;13.294;2022-12-24T07:56:22;7.80;99.90
47090;DHT22;32840;52.516;13.294;2022-12-24T07:59:07;7.80;99.90
47090;DHT22;32840;52.516;13.294;2022-12-24T08:01:52;7.90;99.90
47090;DHT22;32840;52.516;13.294;2022-12-24T08:04:39;7.90;99.90
47090;DHT22;32840;52.516;13.294;2022-12-24T08:07:25;8.00;99.90
47090;DHT22;32840;52.516;13.294;2022-12-24T08:10:10;8.00;99.90
47090;DHT22;32840;52.516;13.294;2022-12-24T08:12:55;8.00;99.90
47090;DHT22;32840;52.516;13.294;2022-12-24T08:15:40;8.00;99.90
47090;DHT22;32840;52.516;13.294;2022-12-24T08:18:26;8.00;99.90
47090;DHT22;32840;52.516;13.294;2022-12-24T08:21:12;7.90;99.90
47090;DHT22;32840;52.516;13.294;2022-12-24T08:23:57;8.00;99.90
47090;DHT22;32840;52.516;13.294;2022-12-24T08:26:42;8.10;99.90
47090;DHT22;32840;52.516;13.294;2022-12-24T08:29:26;8.10;99.90
47090;DHT22;32840;52.516;13.294;2022-12-24T08:32:12;8.30;99.90
47090;DHT22;32840;52.516;13.294;2022-12-24T08:34:57;8.20;99.90
47090;DHT22;32840;52.516;13.294;2022-12-24T08:37:42;8.00;99.90
47090;DHT22;32840;52.516;13.294;2022-12-24T08:40:27;7.90;99.90
47090;DHT22;32840;52.516;13.294;2022-12-24T08:43:11;7.90;99.90
47090;DHT22;32840;52.516;13.294;2022-12-24T08:46:13;7.80;99.90
47090;DHT22;32840;52.516;13.294;2022-12-24T08:49:33;7.90;99.90
47090;DHT22;32840;52.516;13.294;2022-12-24T08:52:24;8.00;99.90
47090;DHT22;32840;52.516;13.294;2022-12-24T08:55:33;7.90;99.90
47090;DHT22;32840;52.516;13.294;2022-12-24T08:58:24;8.00;99.90
47090;DHT22;32840;52.516;13.294;2022-12-24T09:01:17;8.00;99.90
47090;DHT22;32840;52.516;13.294;2022-12-24T09:04:03;8.20;99.90
47090;DHT22;32840;52.516;13.294;2022-12-24T09:06:58;8.20;99.90
47090;DHT22;32840;52.516;13.294;2022-12-24T09:09:48;8.40;99.90
47090;DHT22;32840;52.516;13.294;2022-12-24T09:12:35;8.40;99.90
47090;DHT22;32840;52.516;13.294;2022-12-24T09:15:20;8.40;99.90
47090;DHT22;32840;52.516;13.294;2022-12-24T09:18:17;8.40;99.90
47090;DHT22;32840;52.516;13.294;2022-12-24T09:21:08;8.40;99.90
47090;DHT22;32840;52.516;13.294;2022-12-24T09:23:59;8.30;99.90
47090;DHT22;32840;52.516;13.294;2022-12-24T09:26:56;8.20;99.90
47090;DHT22;32840;52.516;13.294;2022-12-24T09:29:50;8.20;99.90
47090;DHT22;32840;52.516;13.294;2022-12-24T09:32:36;8.20;99.90
47090;DHT22;32840;52.516;13.294;2022-12-24T09:35:22;8.10;99.90
47090;DHT22;32840;52.516;13.294;2022-12-24T09:38:06;8.00;99.90
47090;DHT22;32840;52.516;13.294;2022-12-24T09:40:53;8.10;99.90
47090;DHT22;32840;52.516;13.294;2022-12-24T09:43:50;8.20;99.90
47090;DHT22;32840;52.516;13.294;2022-12-24T09:46:50;8.40;99.90
47090;DHT22;32840;52.516;13.294;2022-12-24T09:49:45;8.50;99.90
47090;DHT22;32840;52.516;13.294;2022-12-24T09:52:41;8.50;99.90
47090;DHT22;32840;52.516;13.294;2022-12-24T09:55:52;8.60;99.90
47090;DHT22;32840;52.516;13.294;2022-12-24T09:59:24;8.70;99.90
47090;DHT22;32840;52.516;13.294;2022-12-24T10:02:18;8.80;99.90
47090;DHT22;32840;52.516;13.294;2022-12-24T10:05:08;8.90;99.90
47090;DHT22;32840;52.516;13.294;2022-12-24T10:08:13;8.90;99.90
47090;DHT22;32840;52.516;13.294;2022-12-24T10:15:00;8.90;99.90
47090;DHT22;32840;52.516;13.294;2022-12-24T10:18:25;9.00;99.90
47090;DHT22;32840;52.516;13.294;2022-12-24T10:21:40;9.10;99.90
47090;DHT22;32840;52.516;13.294;2022-12-24T10:24:51;9.20;99.90
47090;DHT22;32840;52.516;13.294;2022-12-24T10:27:38;9.20;99.90
47090;DHT22;32840;52.516;13.294;2022-12-24T10:30:26;9.20;99.90
47090;DHT22;32840;52.516;13.294;2022-12-24T10:33:31;9.20;99.90
47090;DHT22;32840;52.516;13.294;2022-12-24T10:36:26;9.20;99.90
47090;DHT22;32840;52.516;13.294;2022-12-24T10:39:25;9.20;99.90
47090;DHT22;32840;52.516;13.294;2022-12-24T10:42:31;9.20;99.90
47090;DHT22;32840;52.516;13.294;2022-12-24T10:45:40;9.20;99.90
47090;DHT22;32840;52.516;13.294;2022-12-24T10:48:52;9.20;99.90
47090;DHT22;32840;52.516;13.294;2022-12-24T10:55:24;9.30;99.90
47090;DHT22;32840;52.516;13.294;2022-12-24T10:58:53;9.30;99.90
47090;DHT22;32840;52.516;13.294;2022-12-24T11:01:44;9.40;99.90
47090;DHT22;32840;52.516;13.294;2022-12-24T11:04:33;9.40;99.90
47090;DHT22;32840;52.516;13.294;2022-12-24T11:07:32;9.50;99.90
47090;DHT22;32840;52.516;13.294;2022-12-24T11:10:58;9.50;99.90
47090;DHT22;32840;52.516;13.294;2022-12-24T11:14:10;9.50;99.90
47090;DHT22;32840;52.516;13.294;2022-12-24T11:16:58;9.50;99.90
47090;DHT22;32840;52.516;13.294;2022-12-24T11:19:52;9.60;99.90
47090;DHT22;32840;52.516;13.294;2022-12-24T11:22:38;9.60;99.90
47090;DHT22;32840;52.516;13.294;2022-12-24T11:25:30;9.60;99.90
47090;DHT22;32840;52.516;13.294;2022-12-24T11:28:25;9.70;99.90
47090;DHT22;32840;52.516;13.294;2022-12-24T11:31:36;9.70;99.90
47090;DHT22;32840;52.516;13.294;2022-12-24T11:34:24;9.70;99.90
47090;DHT22;32840;52.516;13.294;2022-12-24T11:37:32;9.70;99.90
47090;DHT22;32840;52.516;13.294;2022-12-24T11:40:21;9.70;99.90
47090;DHT22;32840;52.516;13.294;2022-12-24T11:43:19;9.70;99.90
47090;DHT22;32840;52.516;13.294;2022-12-24T11:46:38;9.60;99.90
47090;DHT22;32840;52.516;13.294;2022-12-24T11:49:32;9.50;99.90
47090;DHT22;32840;52.516;13.294;2022-12-24T11:52:27;9.60;99.90
47090;DHT22;32840;52.516;13.294;2022-12-24T11:55:55;9.70;99.90
47090;DHT22;32840;52.516;13.294;2022-12-24T11:58:41;9.80;99.90
47090;DHT22;32840;52.516;13.294;2022-12-24T12:01:43;9.80;99.90
47090;DHT22;32840;52.516;13.294;2022-12-24T12:04:45;9.80;99.90
47090;DHT22;32840;52.516;13.294;2022-12-24T12:07:37;9.80;99.90
47090;DHT22;32840;52.516;13.294;2022-12-24T12:10:36;9.80;99.90
47090;DHT22;32840;52.516;13.294;2022-12-24T12:13:36;9.80;99.90
47090;DHT22;32840;52.516;13.294;2022-12-24T12:16:45;9.80;99.90
47090;DHT22;32840;52.516;13.294;2022-12-24T12:19:48;9.90;99.90
47090;DHT22;32840;52.516;13.294;2022-12-24T12:26:09;9.90;99.90
47090;DHT22;32840;52.516;13.294;2022-12-24T12:31:55;9.90;99.90
47090;DHT22;32840;52.516;13.294;2022-12-24T12:34:44;9.90;99.90
47090;DHT22;32840;52.516;13.294;2022-12-24T12:37:55;10.00;99.90
47090;DHT22;32840;52.516;13.294;2022-12-24T12:41:30;10.00;99.90
47090;DHT22;32840;52.516;13.294;2022-12-24T12:53:35;10.10;99.90
47090;DHT22;32840;52.516;13.294;2022-12-24T12:56:29;10.20;99.90
47090;DHT22;32840;52.516;13.294;2022-12-24T12:59:33;10.20;99.90
47090;DHT22;32840;52.516;13.294;2022-12-24T13:05:53;10.30;99.90
47090;DHT22;32840;52.516;13.294;2022-12-24T13:14:54;10.20;99.90
47090;DHT22;32840;52.516;13.294;2022-12-24T13:20:56;10.30;99.90
47090;DHT22;32840;52.516;13.294;2022-12-24T13:23:41;10.30;99.90
47090;DHT22;32840;52.516;13.294;2022-12-24T13:26:26;10.30;99.90
47090;DHT22;32840;52.516;13.294;2022-12-24T13:29:40;10.30;99.90
47090;DHT22;32840;52.516;13.294;2022-12-24T13:44:22;10.20;99.90
47090;DHT22;32840;52.516;13.294;2022-12-24T13:50:55;10.20;99.90
47090;DHT22;32840;52.516;13.294;2022-12-24T13:53:26;10.20;99.90
47090;DHT22;32840;52.516;13.294;2022-12-24T13:59:33;10.20;99.90
47090;DHT22;32840;52.516;13.294;2022-12-24T14:02:19;10.10;99.90
47090;DHT22;32840;52.516;13.294;2022-12-24T14:05:14;10.10;99.90
47090;DHT22;32840;52.516;13.294;2022-12-24T14:08:08;10.10;99.90
47090;DHT22;32840;52.516;13.294;2022-12-24T14:11:11;10.10;99.90
47090;DHT22;32840;52.516;13.294;2022-12-24T14:16:50;10.00;99.90
47090;DHT22;32840;52.516;13.294;2022-12-24T14:19:45;9.90;99.90
47090;DHT22;32840;52.516;13.294;2022-12-24T14:22:39;9.90;99.90
47090;DHT22;32840;52.516;13.294;2022-12-24T14:25:28;9.90;99.90
47090;DHT22;32840;52.516;13.294;2022-12-24T14:28:16;9.80;99.90
47090;DHT22;32840;52.516;13.294;2022-12-24T14:31:04;9.80;99.90
47090;DHT22;32840;52.516;13.294;2022-12-24T14:33:50;9.90;99.90
47090;DHT22;32840;52.516;13.294;2022-12-24T14:36:36;9.90;99.90
47090;DHT22;32840;52.516;13.294;2022-12-24T14:39:33;9.90;99.90
47090;DHT22;32840;52.516;13.294;2022-12-24T14:42:54;9.90;99.90
47090;DHT22;32840;52.516;13.294;2022-12-24T14:45:54;9.80;99.90
47090;DHT22;32840;52.516;13.294;2022-12-24T14:48:59;9.80;99.90
47090;DHT22;32840;52.516;13.294;2022-12-24T14:54:51;9.90;99.90
47090;DHT22;32840;52.516;13.294;2022-12-24T14:57:36;9.90;99.90
47090;DHT22;32840;52.516;13.294;2022-12-24T15:00:21;9.90;99.90
47090;DHT22;32840;52.516;13.294;2022-12-24T15:03:15;9.90;99.90
47090;DHT22;32840;52.516;13.294;2022-12-24T15:06:03;9.80;99.90
47090;DHT22;32840;52.516;13.294;2022-12-24T15:08:48;9.70;99.90
47090;DHT22;32840;52.516;13.294;2022-12-24T15:11:34;9.70;99.90
47090;DHT22;32840;52.516;13.294;2022-12-24T15:14:21;9.70;99.90
47090;DHT22;32840;52.516;13.294;2022-12-24T15:17:09;9.70;99.90
47090;DHT22;32840;52.516;13.294;2022-12-24T15:19:55;9.60;99.90
47090;DHT22;32840;52.516;13.294;2022-12-24T15:22:43;9.50;99.90
47090;DHT22;32840;52.516;13.294;2022-12-24T15:25:31;9.50;99.90
47090;DHT22;32840;52.516;13.294;2022-12-24T15:28:17;9.50;99.90
47090;DHT22;32840;52.516;13.294;2022-12-24T15:31:09;9.50;99.90
47090;DHT22;32840;52.516;13.294;2022-12-24T15:34:28;9.50;99.90
47090;DHT22;32840;52.516;13.294;2022-12-24T15:37:28;9.40;99.90
47090;DHT22;32840;52.516;13.294;2022-12-24T15:40:19;9.40;99.90
47090;DHT22;32840;52.516;13.294;2022-12-24T15:43:05;9.30;99.90
47090;DHT22;32840;52.516;13.294;2022-12-24T15:45:50;9.30;99.90
47090;DHT22;32840;52.516;13.294;2022-12-24T15:48:36;9.30;99.90
47090;DHT22;32840;52.516;13.294;2022-12-24T15:51:35;9.30;99.90
47090;DHT22;32840;52.516;13.294;2022-12-24T15:54:21;9.30;99.90
47090;DHT22;32840;52.516;13.294;2022-12-24T15:57:34;9.30;99.90
47090;DHT22;32840;52.516;13.294;2022-12-24T16:00:27;9.20;99.90
47090;DHT22;32840;52.516;13.294;2022-12-24T16:03:19;9.20;99.90
47090;DHT22;32840;52.516;13.294;2022-12-24T16:06:09;9.20;99.90
47090;DHT22;32840;52.516;13.294;2022-12-24T16:08:55;9.20;99.90
47090;DHT22;32840;52.516;13.294;2022-12-24T16:11:40;9.10;99.90
47090;DHT22;32840;52.516;13.294;2022-12-24T16:14:25;9.10;99.90
47090;DHT22;32840;52.516;13.294;2022-12-24T16:17:31;9.10;99.90
47090;DHT22;32840;52.516;13.294;2022-12-24T16:20:21;9.10;99.90
47090;DHT22;32840;52.516;13.294;2022-12-24T16:23:19;9.00;99.90
47090;DHT22;32840;52.516;13.294;2022-12-24T16:26:04;9.00;99.90
47090;DHT22;32840;52.516;13.294;2022-12-24T16:28:49;9.00;99.90
47090;DHT22;32840;52.516;13.294;2022-12-24T16:31:43;9.00;99.90
47090;DHT22;32840;52.516;13.294;2022-12-24T16:34:29;9.00;99.90
47090;DHT22;32840;52.516;13.294;2022-12-24T16:37:14;9.00;99.90
47090;DHT22;32840;52.516;13.294;2022-12-24T16:40:00;8.90;99.90
47090;DHT22;32840;52.516;13.294;2022-12-24T16:42:46;8.90;99.90
47090;DHT22;32840;52.516;13.294;2022-12-24T16:45:50;8.90;99.90
47090;DHT22;32840;52.516;13.294;2022-12-24T16:48:36;8.90;99.90
47090;DHT22;32840;52.516;13.294;2022-12-24T16:51:22;8.90;99.90
47090;DHT22;32840;52.516;13.294;2022-12-24T16:54:10;8.90;99.90
47090;DHT22;32840;52.516;13.294;2022-12-24T16:56:56;8.90;99.90
47090;DHT22;32840;52.516;13.294;2022-12-24T16:59:41;8.80;99.90
47090;DHT22;32840;52.516;13.294;2022-12-24T17:02:26;8.80;99.90
47090;DHT22;32840;52.516;13.294;2022-12-24T17:05:11;8.80;99.90
47090;DHT22;32840;52.516;13.294;2022-12-24T17:08:01;8.80;99.90
47090;DHT22;32840;52.516;13.294;2022-12-24T17:10:50;8.80;99.90
47090;DHT22;32840;52.516;13.294;2022-12-24T17:13:35;8.80;99.90
47090;DHT22;32840;52.516;13.294;2022-12-24T17:16:20;8.80;99.90
47090;DHT22;32840;52.516;13.294;2022-12-24T17:19:05;8.80;99.90
47090;DHT22;32840;52.516;13.294;2022-12-24T17:21:49;8.80;99.90
47090;DHT22;32840;52.516;13.294;2022-12-24T17:24:34;8.80;99.90
47090;DHT22;32840;52.516;13.294;2022-12-24T17:27:19;8.80;99.90
47090;DHT22;32840;52.516;13.294;2022-12-24T17:30:05;8.70;99.90
47090;DHT22;32840;52.516;13.294;2022-12-24T17:32:50;8.80;99.90
47090;DHT22;32840;52.516;13.294;2022-12-24T17:35:39;8.90;99.90
47090;DHT22;32840;52.516;13.294;2022-12-24T17:38:27;8.90;99.90
47090;DHT22;32840;52.516;13.294;2022-12-24T17:41:15;9.00;99.90
47090;DHT22;32840;52.516;13.294;2022-12-24T17:44:00;9.10;99.90
47090;DHT22;32840;52.516;13.294;2022-12-24T17:46:45;9.10;99.90
47090;DHT22;32840;52.516;13.294;2022-12-24T17:49:31;9.20;99.90
47090;DHT22;32840;52.516;13.294;2022-12-24T17:52:16;9.20;99.90
47090;DHT22;32840;52.516;13.294;2022-12-24T17:55:01;9.20;99.90
47090;DHT22;32840;52.516;13.294;2022-12-24T17:57:47;9.10;99.90
47090;DHT22;32840;52.516;13.294;2022-12-24T18:00:34;9.10;99.90
47090;DHT22;32840;52.516;13.294;2022-12-24T18:03:18;9.10;99.90
47090;DHT22;32840;52.516;13.294;2022-12-24T18:06:06;9.20;99.90
47090;DHT22;32840;52.516;13.294;2022-12-24T18:08:51;9.30;99.90
47090;DHT22;32840;52.516;13.294;2022-12-24T18:11:36;9.30;99.90
47090;DHT22;32840;52.516;13.294;2022-12-24T18:14:22;9.30;99.90
47090;DHT22;32840;52.516;13.294;2022-12-24T18:17:07;9.30;99.90
47090;DHT22;32840;52.516;13.294;2022-12-24T18:19:51;9.30;99.90
47090;DHT22;32840;52.516;13.294;2022-12-24T18:22:36;9.30;99.90
47090;DHT22;32840;52.516;13.294;2022-12-24T18:25:22;9.40;99.90
47090;DHT22;32840;52.516;13.294;2022-12-24T18:28:09;9.40;99.90
47090;DHT22;32840;52.516;13.294;2022-12-24T18:31:02;9.40;99.90
47090;DHT22;32840;52.516;13.294;2022-12-24T18:33:48;9.40;99.90
47090;DHT22;32840;52.516;13.294;2022-12-24T18:36:36;9.30;99.90
47090;DHT22;32840;52.516;13.294;2022-12-24T18:39:21;9.40;99.90
47090;DHT22;32840;52.516;13.294;2022-12-24T18:42:06;9.40;99.90
47090;DHT22;32840;52.516;13.294;2022-12-24T18:44:51;9.40;99.90
47090;DHT22;32840;52.516;13.294;2022-12-24T18:47:36;9.40;99.90
47090;DHT22;32840;52.516;13.294;2022-12-24T18:50:20;9.40;99.90
47090;DHT22;32840;52.516;13.294;2022-12-24T18:53:06;9.40;99.90
47090;DHT22;32840;52.516;13.294;2022-12-24T18:55:51;9.40;99.90
47090;DHT22;32840;52.516;13.294;2022-12-24T18:58:39;9.40;99.90
47090;DHT22;32840;52.516;13.294;2022-12-24T19:01:32;9.40;99.90
47090;DHT22;32840;52.516;13.294;2022-12-24T19:04:17;9.40;99.90
47090;DHT22;32840;52.516;13.294;2022-12-24T19:07:02;9.40;99.90
47090;DHT22;32840;52.516;13.294;2022-12-24T19:09:48;9.50;99.90
47090;DHT22;32840;52.516;13.294;2022-12-24T19:12:33;9.50;99.90